Time;durP1;ratioP1;P1;durP2;ratioP2;P2;SDS_P1;SDS_P2;PMS_P1;PMS_P2;Temp;Humidity;BMP_temperature;BMP_pressure;BME280_temperature;BME280_humidity;BME280_pressure;Samples;Min_cycle;Max_cycle;Signal;HPM_P1;HPM_P2
2022/03/14 00:02:15;;;;;;;25.63;8.75;;;;;;;;;;5095127;28;20032;-74
2022/03/14 00:04:41;;;;;;;34.08;9.45;;;;;;;;;;5103220;28;20019;-74
2022/03/14 00:07:07;;;;;;;32.05;11.20;;;;;;;;;;5108786;28;20036;-74
2022/03/14 00:09:34;;;;;;;33.08;11.57;;;;;;;;;;5075042;28;20025;-75
2022/03/14 00:12:00;;;;;;;37.25;11.43;;;;;;;;;;5090421;28;20462;-74
2022/03/14 00:14:27;;;;;;;34.25;13.65;;;;;;;;;;5095009;28;20028;-75
2022/03/14 00:16:55;;;;;;;44.95;17.77;;;;;;;;;;5095474;28;20020;-75
2022/03/14 00:19:22;;;;;;;44.15;19.13;;;;;;;;;;5092921;28;20032;-75
2022/03/14 00:21:49;;;;;;;50.88;26.80;;;;;;;;;;5094973;28;20020;-75
2022/03/14 00:24:15;;;;;;;49.72;27.08;;;;;;;;;;5083341;28;20017;-74
2022/03/14 00:26:42;;;;;;;52.42;27.33;;;;;;;;;;5074323;28;20020;-75
2022/03/14 00:29:08;;;;;;;54.53;25.17;;;;;;;;;;5080161;28;20064;-74
2022/03/14 00:31:35;;;;;;;48.60;20.73;;;;;;;;;;5074765;28;20027;-74
2022/03/14 00:34:01;;;;;;;46.05;20.40;;;;;;;;;;5074226;28;20016;-74
2022/03/14 00:36:28;;;;;;;43.25;18.75;;;;;;;;;;5077008;28;20025;-74
2022/03/14 00:38:55;;;;;;;45.58;19.92;;;;;;;;;;5078987;28;20043;-73
2022/03/14 00:41:21;;;;;;;45.53;20.35;;;;;;;;;;5083154;28;20024;-74
2022/03/14 00:43:48;;;;;;;45.47;21.45;;;;;;;;;;5094204;28;20509;-74
2022/03/14 00:46:16;;;;;;;49.67;21.33;;;;;;;;;;5083105;28;20131;-74
2022/03/14 00:48:43;;;;;;;53.42;23.75;;;;;;;;;;5075664;28;20025;-74
2022/03/14 00:51:10;;;;;;;52.70;23.50;;;;;;;;;;5084524;28;20021;-74
2022/03/14 00:53:37;;;;;;;47.58;22.75;;;;;;;;;;5094413;28;20024;-74
2022/03/14 00:56:04;;;;;;;47.22;22.45;;;;;;;;;;5090808;28;20534;-74
2022/03/14 00:58:30;;;;;;;48.13;19.75;;;;;;;;;;5085124;28;20040;-75
2022/03/14 01:00:56;;;;;;;55.00;21.33;;;;;;;;;;5090326;28;20032;-75
2022/03/14 01:03:23;;;;;;;42.33;19.45;;;;;;;;;;5091310;28;20032;-75
2022/03/14 01:05:49;;;;;;;42.35;19.98;;;;;;;;;;5086480;28;20024;-75
2022/03/14 01:08:15;;;;;;;52.40;19.75;;;;;;;;;;5092778;28;20105;-74
2022/03/14 01:10:41;;;;;;;46.63;19.63;;;;;;;;;;5086434;28;20033;-75
2022/03/14 01:13:11;;;;;;;49.58;20.33;;;;;;;;;;5092109;28;20406;-74
2022/03/14 01:15:38;;;;;;;55.10;24.05;;;;;;;;;;5093649;28;20509;-75
2022/03/14 01:18:05;;;;;;;52.78;24.92;;;;;;;;;;5093598;28;20329;-75
2022/03/14 01:20:32;;;;;;;50.53;25.85;;;;;;;;;;5092472;28;20057;-75
2022/03/14 01:22:58;;;;;;;49.22;24.85;;;;;;;;;;5093545;28;20074;-74
2022/03/14 01:25:24;;;;;;;55.83;24.25;;;;;;;;;;5093338;28;20348;-75
2022/03/14 01:27:51;;;;;;;38.55;20.40;;;;;;;;;;5093784;28;20056;-75
2022/03/14 01:30:19;;;;;;;41.13;20.30;;;;;;;;;;5093437;28;20698;-76
2022/03/14 01:32:45;;;;;;;40.95;19.02;;;;;;;;;;5093076;28;20031;-76
2022/03/14 01:35:12;;;;;;;43.42;19.75;;;;;;;;;;5091909;28;20039;-74
2022/03/14 01:37:38;;;;;;;40.55;17.63;;;;;;;;;;5092651;28;20420;-75
2022/03/14 01:40:06;;;;;;;35.75;17.65;;;;;;;;;;5088758;28;20120;-75
2022/03/14 01:42:32;;;;;;;44.58;19.25;;;;;;;;;;5086744;28;20032;-75
2022/03/14 01:44:58;;;;;;;40.50;17.85;;;;;;;;;;5085875;28;20441;-75
2022/03/14 01:47:24;;;;;;;46.58;19.25;;;;;;;;;;5085965;28;20028;-74
2022/03/14 01:49:51;;;;;;;41.75;19.40;;;;;;;;;;5093202;28;20024;-75
2022/03/14 01:52:18;;;;;;;44.55;20.85;;;;;;;;;;5093175;28;20028;-75
2022/03/14 01:54:44;;;;;;;43.67;19.63;;;;;;;;;;5090182;28;20055;-74
2022/03/14 01:57:13;;;;;;;42.92;19.08;;;;;;;;;;5092980;28;20084;-75
2022/03/14 01:59:39;;;;;;;41.78;18.67;;;;;;;;;;5092678;28;20485;-74
2022/03/14 02:02:06;;;;;;;38.83;20.58;;;;;;;;;;5091643;28;20036;-75
2022/03/14 02:04:33;;;;;;;43.90;19.00;;;;;;;;;;5085365;28;20020;-75
2022/03/14 02:06:59;;;;;;;42.75;18.42;;;;;;;;;;5092341;28;20453;-75
2022/03/14 02:09:25;;;;;;;41.03;18.95;;;;;;;;;;5093688;28;20047;-75
2022/03/14 02:11:52;;;;;;;40.92;18.83;;;;;;;;;;5089752;28;20485;-75
2022/03/14 02:14:19;;;;;;;40.75;19.08;;;;;;;;;;5088229;28;20119;-76
2022/03/14 02:16:45;;;;;;;47.72;19.05;;;;;;;;;;5082759;28;20063;-76
2022/03/14 02:19:11;;;;;;;47.58;21.23;;;;;;;;;;5063846;28;20033;-75
2022/03/14 02:21:38;;;;;;;43.72;21.80;;;;;;;;;;5070109;28;20588;-75
2022/03/14 02:24:05;;;;;;;47.58;23.60;;;;;;;;;;5081764;28;20431;-76
2022/03/14 02:26:31;;;;;;;49.03;25.48;;;;;;;;;;5077863;28;20051;-76
2022/03/14 02:28:58;;;;;;;50.05;24.52;;;;;;;;;;5086844;28;20020;-77
2022/03/14 02:31:24;;;;;;;50.90;24.92;;;;;;;;;;5084195;28;20665;-77
2022/03/14 02:33:50;;;;;;;49.90;23.17;;;;;;;;;;5083550;28;20471;-77
2022/03/14 02:36:17;;;;;;;48.72;23.98;;;;;;;;;;5084123;28;21038;-76
2022/03/14 02:38:43;;;;;;;47.88;25.38;;;;;;;;;;5078594;28;20044;-76
2022/03/14 02:41:10;;;;;;;43.80;22.30;;;;;;;;;;5081163;28;20156;-76
2022/03/14 02:43:36;;;;;;;40.20;22.50;;;;;;;;;;5084505;28;20044;-75
2022/03/14 02:46:03;;;;;;;45.67;25.67;;;;;;;;;;5065270;28;20043;-76
2022/03/14 02:48:30;;;;;;;46.38;23.80;;;;;;;;;;5083055;28;20027;-75
2022/03/14 02:50:57;;;;;;;50.38;21.77;;;;;;;;;;5080822;28;20107;-77
2022/03/14 02:53:23;;;;;;;43.33;22.60;;;;;;;;;;5083160;28;20021;-76
2022/03/14 02:55:50;;;;;;;47.38;23.73;;;;;;;;;;5081038;28;20020;-76
2022/03/14 02:58:16;;;;;;;46.83;22.10;;;;;;;;;;5085209;28;20482;-75
2022/03/14 03:00:42;;;;;;;47.03;21.52;;;;;;;;;;5080953;28;20036;-76
2022/03/14 03:03:10;;;;;;;48.42;20.90;;;;;;;;;;5086433;28;20032;-77
2022/03/14 03:05:43;;;;;;;48.63;21.10;;;;;;;;;;5087340;28;20020;-74
2022/03/14 03:08:09;;;;;;;43.85;20.58;;;;;;;;;;5083298;28;20017;-76
2022/03/14 03:10:36;;;;;;;40.83;21.08;;;;;;;;;;5088161;28;20056;-76
2022/03/14 03:13:03;;;;;;;45.75;18.05;;;;;;;;;;5085207;28;20052;-74
2022/03/14 03:15:29;;;;;;;44.35;18.50;;;;;;;;;;5091717;28;20080;-75
2022/03/14 03:17:55;;;;;;;37.00;17.30;;;;;;;;;;5085382;28;20016;-76
2022/03/14 03:20:22;;;;;;;30.85;15.07;;;;;;;;;;5088698;28;20081;-76
2022/03/14 03:22:49;;;;;;;35.85;14.85;;;;;;;;;;5067456;28;20052;-76
2022/03/14 03:25:16;;;;;;;27.58;13.43;;;;;;;;;;5088418;28;20120;-76
2022/03/14 03:27:43;;;;;;;29.80;13.20;;;;;;;;;;5070185;28;20119;-76
2022/03/14 03:30:09;;;;;;;30.65;12.77;;;;;;;;;;5085417;28;20051;-75
2022/03/14 03:32:36;;;;;;;26.83;12.98;;;;;;;;;;5084968;28;20064;-75
2022/03/14 03:35:02;;;;;;;23.40;10.48;;;;;;;;;;5088240;28;20453;-77
2022/03/14 03:37:28;;;;;;;27.33;12.43;;;;;;;;;;5089185;28;20028;-75
2022/03/14 03:39:55;;;;;;;24.80;11.55;;;;;;;;;;5089164;28;20051;-76
2022/03/14 03:42:21;;;;;;;22.15;12.57;;;;;;;;;;5090283;28;20514;-76
2022/03/14 03:44:47;;;;;;;22.27;11.18;;;;;;;;;;5090762;28;20157;-76
2022/03/14 03:47:13;;;;;;;23.48;10.73;;;;;;;;;;5089614;28;20032;-78
2022/03/14 03:49:40;;;;;;;24.00;11.65;;;;;;;;;;5084549;28;20020;-75
2022/03/14 03:52:07;;;;;;;23.88;12.88;;;;;;;;;;5090772;28;20062;-76
2022/03/14 03:54:34;;;;;;;27.45;10.50;;;;;;;;;;5085658;28;20032;-77
2022/03/14 03:57:00;;;;;;;22.40;8.73;;;;;;;;;;5088526;28;20142;-78
2022/03/14 03:59:27;;;;;;;13.38;8.80;;;;;;;;;;5091245;28;20070;-77
2022/03/14 04:01:53;;;;;;;21.83;8.18;;;;;;;;;;5084619;28;20028;-76
2022/03/14 04:04:19;;;;;;;19.33;7.65;;;;;;;;;;5087865;28;20142;-75
2022/03/14 04:06:46;;;;;;;19.90;7.85;;;;;;;;;;5088689;28;20055;-76
2022/03/14 04:09:12;;;;;;;22.17;8.43;;;;;;;;;;5090231;28;20027;-77
2022/03/14 04:11:42;;;;;;;21.23;8.73;;;;;;;;;;5087299;28;20032;-76
2022/03/14 04:14:09;;;;;;;20.02;7.47;;;;;;;;;;5087818;28;20032;-76
2022/03/14 04:16:36;;;;;;;20.58;8.38;;;;;;;;;;5087798;28;20036;-76
2022/03/14 04:19:02;;;;;;;21.85;8.00;;;;;;;;;;5085878;28;20112;-75
2022/03/14 04:21:30;;;;;;;33.88;8.02;;;;;;;;;;5084298;28;20033;-76
2022/03/14 04:23:57;;;;;;;15.95;6.30;;;;;;;;;;5086473;28;20024;-77
2022/03/14 04:26:25;;;;;;;25.73;6.15;;;;;;;;;;5088475;28;20039;-76
2022/03/14 04:28:53;;;;;;;14.15;5.18;;;;;;;;;;5087584;28;20032;-77
2022/03/14 04:31:21;;;;;;;17.70;6.00;;;;;;;;;;5088480;28;20028;-77
2022/03/14 04:33:47;;;;;;;16.33;5.82;;;;;;;;;;5087639;28;20039;-77
2022/03/14 04:36:13;;;;;;;17.80;6.43;;;;;;;;;;5084951;28;20024;-77
2022/03/14 04:38:40;;;;;;;14.02;5.68;;;;;;;;;;5083578;28;20051;-76
2022/03/14 04:41:06;;;;;;;26.42;6.60;;;;;;;;;;5087153;28;20081;-77
2022/03/14 04:43:33;;;;;;;23.27;6.88;;;;;;;;;;5085368;28;20513;-78
2022/03/14 04:45:59;;;;;;;20.83;7.68;;;;;;;;;;5084289;28;20030;-78
2022/03/14 04:48:57;;;;;;;14.70;5.93;;;;;;;;;;5086862;28;20032;-78
2022/03/14 04:51:24;;;;;;;20.67;5.88;;;;;;;;;;5067338;28;20093;-76
2022/03/14 04:53:51;;;;;;;18.45;5.97;;;;;;;;;;5081629;28;20504;-79
2022/03/14 04:56:17;;;;;;;15.93;7.07;;;;;;;;;;5074587;28;20055;-76
2022/03/14 04:58:43;;;;;;;20.08;6.65;;;;;;;;;;5078086;28;20047;-75
2022/03/14 05:01:10;;;;;;;24.92;9.05;;;;;;;;;;5080195;28;20481;-77
2022/03/14 05:03:36;;;;;;;30.65;10.18;;;;;;;;;;5077682;28;20385;-77
2022/03/14 05:06:08;;;;;;;27.95;12.98;;;;;;;;;;5083791;28;20016;-77
2022/03/14 05:08:35;;;;;;;33.83;12.77;;;;;;;;;;5083729;28;20028;-76
2022/03/14 05:11:02;;;;;;;23.50;10.25;;;;;;;;;;5083843;28;20157;-76
2022/03/14 05:13:29;;;;;;;22.50;9.10;;;;;;;;;;5078395;28;20027;-78
2022/03/14 05:15:55;;;;;;;24.73;8.48;;;;;;;;;;5079752;28;20013;-76
2022/03/14 05:18:21;;;;;;;27.45;8.25;;;;;;;;;;5078722;28;20040;-77
2022/03/14 05:20:48;;;;;;;35.75;11.88;;;;;;;;;;5066982;28;20448;-78
2022/03/14 05:23:14;;;;;;;41.08;12.95;;;;;;;;;;5079973;28;20038;-78
2022/03/14 05:25:40;;;;;;;37.65;12.65;;;;;;;;;;5081772;28;21094;-76
2022/03/14 05:28:07;;;;;;;26.08;11.00;;;;;;;;;;5082903;28;20461;-77
2022/03/14 05:30:33;;;;;;;31.13;12.10;;;;;;;;;;5083791;28;20024;-77
2022/03/14 05:33:00;;;;;;;30.33;9.45;;;;;;;;;;5084184;28;20027;-76
2022/03/14 05:35:26;;;;;;;25.10;8.95;;;;;;;;;;5082884;28;20027;-77
2022/03/14 05:37:53;;;;;;;26.75;9.25;;;;;;;;;;5084545;28;20069;-76
2022/03/14 05:40:20;;;;;;;24.20;9.85;;;;;;;;;;5080916;28;20024;-76
2022/03/14 05:42:47;;;;;;;32.42;10.93;;;;;;;;;;5081303;28;20096;-75
2022/03/14 05:45:20;;;;;;;36.17;11.48;;;;;;;;;;5080559;28;20052;-76
2022/03/14 05:47:46;;;;;;;22.63;9.45;;;;;;;;;;5083494;28;20020;-76
2022/03/14 05:50:13;;;;;;;29.30;9.18;;;;;;;;;;5086884;28;20130;-76
2022/03/14 05:52:39;;;;;;;25.52;8.65;;;;;;;;;;5087366;28;20035;-77
2022/03/14 05:55:06;;;;;;;25.88;8.55;;;;;;;;;;5090576;28;20036;-77
2022/03/14 05:57:36;;;;;;;28.90;9.65;;;;;;;;;;5080125;28;21695;-77
2022/03/14 06:00:04;;;;;;;27.08;9.45;;;;;;;;;;5086838;28;20028;-77
2022/03/14 06:02:36;;;;;;;28.60;9.63;;;;;;;;;;5085057;28;20090;-77
2022/03/14 06:05:03;;;;;;;32.65;11.98;;;;;;;;;;5082983;28;20016;-77
2022/03/14 06:07:29;;;;;;;31.83;12.93;;;;;;;;;;5082172;28;20028;-77
2022/03/14 06:09:56;;;;;;;35.40;14.02;;;;;;;;;;5080727;28;20031;-78
2022/03/14 06:12:29;;;;;;;27.45;13.50;;;;;;;;;;5079816;28;20031;-76
2022/03/14 06:14:56;;;;;;;25.80;11.57;;;;;;;;;;5080754;28;20039;-77
2022/03/14 06:17:23;;;;;;;23.83;12.05;;;;;;;;;;5081430;28;20107;-78
2022/03/14 06:19:49;;;;;;;26.33;12.95;;;;;;;;;;5083096;28;20524;-77
2022/03/14 06:22:17;;;;;;;26.52;10.93;;;;;;;;;;5080967;28;20033;-78
2022/03/14 06:24:46;;;;;;;30.33;13.25;;;;;;;;;;5079502;28;20024;-77
2022/03/14 06:27:14;;;;;;;30.15;15.10;;;;;;;;;;5080442;28;20028;-77
2022/03/14 06:29:40;;;;;;;34.60;12.82;;;;;;;;;;5083484;28;20073;-77
2022/03/14 06:32:07;;;;;;;35.83;13.05;;;;;;;;;;5085027;28;20028;-79
2022/03/14 06:34:33;;;;;;;24.55;11.88;;;;;;;;;;5084354;28;20079;-77
2022/03/14 06:36:59;;;;;;;30.13;12.15;;;;;;;;;;5085919;28;20024;-78
2022/03/14 06:39:25;;;;;;;29.38;12.23;;;;;;;;;;5081245;28;20047;-77
2022/03/14 06:41:52;;;;;;;25.58;10.90;;;;;;;;;;5084438;28;20428;-78
2022/03/14 06:44:19;;;;;;;32.25;12.70;;;;;;;;;;5083287;28;20397;-77
2022/03/14 06:46:46;;;;;;;24.98;9.77;;;;;;;;;;5080684;28;20016;-78
2022/03/14 06:49:15;;;;;;;26.02;10.73;;;;;;;;;;5083205;28;20031;-75
2022/03/14 06:51:44;;;;;;;38.78;12.88;;;;;;;;;;5085654;28;20138;-77
2022/03/14 06:54:11;;;;;;;33.45;11.98;;;;;;;;;;5083807;28;20371;-77
2022/03/14 06:56:37;;;;;;;28.80;10.48;;;;;;;;;;5083803;28;20078;-76
2022/03/14 06:59:04;;;;;;;28.35;10.70;;;;;;;;;;5065724;28;20123;-77
2022/03/14 07:01:30;;;;;;;24.58;9.57;;;;;;;;;;5082455;28;20488;-76
2022/03/14 07:03:57;;;;;;;22.80;9.73;;;;;;;;;;5083792;28;20023;-76
2022/03/14 07:06:23;;;;;;;25.85;10.07;;;;;;;;;;5084322;28;20035;-76
2022/03/14 07:08:50;;;;;;;29.23;9.45;;;;;;;;;;5084195;28;20020;-79
2022/03/14 07:11:16;;;;;;;29.10;10.80;;;;;;;;;;5084425;28;20030;-76
2022/03/14 07:13:42;;;;;;;30.52;10.15;;;;;;;;;;5082451;28;20496;-77
2022/03/14 07:16:09;;;;;;;32.33;11.07;;;;;;;;;;5085979;28;20552;-78
2022/03/14 07:18:35;;;;;;;26.23;10.80;;;;;;;;;;5085241;28;20359;-78
2022/03/14 07:21:02;;;;;;;24.58;11.02;;;;;;;;;;5082402;28;20695;-80
2022/03/14 07:23:28;;;;;;;26.17;10.52;;;;;;;;;;5084162;28;20039;-77
2022/03/14 07:25:55;;;;;;;25.67;10.05;;;;;;;;;;5083021;28;20039;-79
2022/03/14 07:28:21;;;;;;;25.58;11.13;;;;;;;;;;5084416;28;20492;-79
2022/03/14 07:30:47;;;;;;;33.00;11.48;;;;;;;;;;5078289;28;20034;-77
2022/03/14 07:33:15;;;;;;;22.48;10.10;;;;;;;;;;5076389;28;20033;-78
2022/03/14 07:35:42;;;;;;;29.33;12.48;;;;;;;;;;5079961;28;20121;-78
2022/03/14 07:38:10;;;;;;;27.40;11.38;;;;;;;;;;5084075;28;20504;-77
2022/03/14 07:40:40;;;;;;;29.33;12.52;;;;;;;;;;5080770;28;20054;-77
2022/03/14 07:43:06;;;;;;;34.53;12.02;;;;;;;;;;5083417;28;20032;-76
2022/03/14 07:45:35;;;;;;;34.90;11.60;;;;;;;;;;5085004;28;20078;-77
2022/03/14 07:48:01;;;;;;;28.15;11.10;;;;;;;;;;5082444;28;20028;-78
2022/03/14 07:50:28;;;;;;;27.92;11.82;;;;;;;;;;5084839;28;20419;-76
2022/03/14 07:52:55;;;;;;;30.23;12.13;;;;;;;;;;5084989;28;20107;-77
2022/03/14 07:55:22;;;;;;;38.17;13.50;;;;;;;;;;5083073;28;20084;-76
2022/03/14 07:57:48;;;;;;;31.10;12.57;;;;;;;;;;5088409;28;20746;-78
2022/03/14 08:00:16;;;;;;;30.98;13.30;;;;;;;;;;5085808;28;20103;-78
2022/03/14 08:02:42;;;;;;;36.30;14.23;;;;;;;;;;5082866;28;20096;-78
2022/03/14 08:05:09;;;;;;;29.75;13.43;;;;;;;;;;5084034;28;20024;-78
2022/03/14 08:07:37;;;;;;;27.90;14.57;;;;;;;;;;5084052;28;20064;-77
2022/03/14 08:10:09;;;;;;;35.63;14.13;;;;;;;;;;5081175;28;21157;-78
2022/03/14 08:12:46;;;;;;;31.25;14.48;;;;;;;;;;5083245;28;20362;-78
2022/03/14 08:15:19;;;;;;;37.03;13.65;;;;;;;;;;5086666;28;20039;-77
2022/03/14 08:17:45;;;;;;;40.42;16.35;;;;;;;;;;5085363;28;20345;-77
2022/03/14 08:20:12;;;;;;;39.00;17.45;;;;;;;;;;5089109;28;20039;-78
2022/03/14 08:22:38;;;;;;;37.08;16.42;;;;;;;;;;5081644;28;20032;-77
2022/03/14 08:25:05;;;;;;;31.02;15.32;;;;;;;;;;5087077;28;20119;-76
2022/03/14 08:27:31;;;;;;;38.97;16.20;;;;;;;;;;5079591;28;20063;-76
2022/03/14 08:29:58;;;;;;;40.13;16.00;;;;;;;;;;5084823;28;20032;-77
2022/03/14 08:32:24;;;;;;;42.47;17.65;;;;;;;;;;5064359;28;20059;-78
2022/03/14 08:34:56;;;;;;;41.75;17.88;;;;;;;;;;5087401;28;20027;-77
2022/03/14 08:37:22;;;;;;;48.60;19.58;;;;;;;;;;5083153;28;20053;-77
2022/03/14 08:39:49;;;;;;;39.67;19.65;;;;;;;;;;5085609;28;20163;-78
2022/03/14 08:42:16;;;;;;;38.72;18.55;;;;;;;;;;5089586;28;20028;-77
2022/03/14 08:44:42;;;;;;;37.63;18.50;;;;;;;;;;5083410;28;20039;-77
2022/03/14 08:47:08;;;;;;;46.85;20.88;;;;;;;;;;5084578;28;20020;-78
2022/03/14 08:49:35;;;;;;;40.90;20.17;;;;;;;;;;5085823;28;20024;-77
2022/03/14 08:52:01;;;;;;;53.20;22.48;;;;;;;;;;5080814;28;20032;-77
2022/03/14 08:54:28;;;;;;;49.63;26.25;;;;;;;;;;5081713;28;20043;-77
2022/03/14 08:56:54;;;;;;;55.95;28.95;;;;;;;;;;5084630;28;20465;-77
2022/03/14 08:59:20;;;;;;;47.00;27.40;;;;;;;;;;5082455;28;20031;-76
2022/03/14 09:01:46;;;;;;;38.25;19.52;;;;;;;;;;5082463;28;20436;-78
2022/03/14 09:04:17;;;;;;;34.55;16.52;;;;;;;;;;5081977;28;20024;-76
2022/03/14 09:06:43;;;;;;;32.53;14.70;;;;;;;;;;5082777;28;20019;-77
2022/03/14 09:09:10;;;;;;;35.20;14.30;;;;;;;;;;5086112;28;20028;-76
2022/03/14 09:11:38;;;;;;;37.33;15.65;;;;;;;;;;5084305;28;20501;-77
2022/03/14 09:14:06;;;;;;;39.15;16.65;;;;;;;;;;5086284;28;21530;-77
2022/03/14 09:16:35;;;;;;;31.00;16.20;;;;;;;;;;5083436;28;20032;-77
2022/03/14 09:19:02;;;;;;;38.65;15.38;;;;;;;;;;5085681;28;20100;-77
2022/03/14 09:21:32;;;;;;;38.78;15.68;;;;;;;;;;5081117;28;20032;-77
2022/03/14 09:23:58;;;;;;;31.33;13.63;;;;;;;;;;5088613;28;20101;-77
2022/03/14 09:26:24;;;;;;;35.50;14.43;;;;;;;;;;5085221;28;20119;-77
2022/03/14 09:28:51;;;;;;;31.63;13.73;;;;;;;;;;5085375;28;20089;-75
2022/03/14 09:31:18;;;;;;;34.33;12.70;;;;;;;;;;5067542;28;20497;-76
2022/03/14 09:33:44;;;;;;;32.45;12.00;;;;;;;;;;5083820;28;20032;-76
2022/03/14 09:36:10;;;;;;;27.63;10.63;;;;;;;;;;5083475;28;20028;-77
2022/03/14 09:38:36;;;;;;;29.00;12.60;;;;;;;;;;5082464;28;20036;-77
2022/03/14 09:41:04;;;;;;;33.20;11.55;;;;;;;;;;5079024;28;20038;-77
2022/03/14 09:43:31;;;;;;;42.60;12.10;;;;;;;;;;5081524;28;20078;-77
2022/03/14 09:46:00;;;;;;;39.00;11.73;;;;;;;;;;5082766;28;20033;-78
2022/03/14 09:48:26;;;;;;;36.05;10.25;;;;;;;;;;5079894;28;20557;-76
2022/03/14 09:50:53;;;;;;;27.05;9.98;;;;;;;;;;5081190;28;20032;-76
2022/03/14 09:53:20;;;;;;;30.10;9.65;;;;;;;;;;5082143;28;20096;-75
2022/03/14 09:55:48;;;;;;;30.67;10.10;;;;;;;;;;5082709;28;20020;-75
2022/03/14 09:58:19;;;;;;;29.65;12.75;;;;;;;;;;5064733;28;20032;-76
2022/03/14 10:00:46;;;;;;;35.63;11.77;;;;;;;;;;5084872;28;20021;-79
2022/03/14 10:03:16;;;;;;;111.53;56.47;;;;;;;;;;5087375;28;20062;-76
2022/03/14 10:05:45;;;;;;;35.75;12.18;;;;;;;;;;5083800;28;20039;-77
2022/03/14 10:08:12;;;;;;;32.72;11.20;;;;;;;;;;5063612;28;20031;-78
2022/03/14 10:10:39;;;;;;;34.42;11.43;;;;;;;;;;5076776;28;20021;-78
2022/03/14 10:13:06;;;;;;;38.70;18.25;;;;;;;;;;5079387;28;20063;-78
2022/03/14 10:15:37;;;;;;;34.58;12.13;;;;;;;;;;5085985;28;20020;-77
2022/03/14 10:18:13;;;;;;;32.38;10.85;;;;;;;;;;5079676;28;20040;-76
2022/03/14 10:21:05;;;;;;;40.00;17.73;;;;;;;;;;5084703;28;20030;-77
2022/03/14 10:23:39;;;;;;;31.15;12.70;;;;;;;;;;5080869;28;20077;-77
2022/03/14 10:26:06;;;;;;;38.95;16.83;;;;;;;;;;5086849;28;20112;-78
2022/03/14 10:28:37;;;;;;;36.97;14.25;;;;;;;;;;5088147;28;20415;-77
2022/03/14 10:31:07;;;;;;;40.78;14.25;;;;;;;;;;5084184;28;20039;-77
2022/03/14 10:33:34;;;;;;;33.97;12.43;;;;;;;;;;5067150;28;20081;-77
2022/03/14 10:36:01;;;;;;;29.38;12.05;;;;;;;;;;5084864;28;20089;-75
2022/03/14 10:38:28;;;;;;;35.88;12.52;;;;;;;;;;5086928;28;20056;-77
2022/03/14 10:40:57;;;;;;;42.97;13.88;;;;;;;;;;5085939;28;20044;-76
2022/03/14 10:43:33;;;;;;;41.70;14.20;;;;;;;;;;5065474;28;20057;-78
2022/03/14 10:46:01;;;;;;;38.25;13.52;;;;;;;;;;5083106;28;20024;-77
2022/03/14 10:48:34;;;;;;;41.33;14.73;;;;;;;;;;5081228;28;20096;-77
2022/03/14 10:51:04;;;;;;;40.22;15.57;;;;;;;;;;5086149;28;20041;-77
2022/03/14 10:53:30;;;;;;;41.40;14.43;;;;;;;;;;5083328;28;20027;-77
2022/03/14 10:56:00;;;;;;;43.05;15.43;;;;;;;;;;5084809;28;20043;-76
2022/03/14 10:58:30;;;;;;;40.38;13.73;;;;;;;;;;5085190;28;20073;-77
2022/03/14 11:01:04;;;;;;;47.03;14.90;;;;;;;;;;5084747;28;20016;-77
2022/03/14 11:03:37;;;;;;;47.30;15.48;;;;;;;;;;5085251;28;20016;-76
2022/03/14 11:06:10;;;;;;;40.17;15.10;;;;;;;;;;5076721;28;20032;-78
2022/03/14 11:08:41;;;;;;;36.53;14.38;;;;;;;;;;5083447;28;20020;-78
2022/03/14 11:11:08;;;;;;;41.38;15.95;;;;;;;;;;5080948;28;20058;-77
2022/03/14 11:13:45;;;;;;;38.97;15.10;;;;;;;;;;5080344;28;20107;-79
2022/03/14 11:16:12;;;;;;;33.17;14.35;;;;;;;;;;5081577;28;20347;-77
2022/03/14 11:18:39;;;;;;;46.08;15.57;;;;;;;;;;5062070;28;20032;-76
2022/03/14 11:21:06;;;;;;;29.75;13.68;;;;;;;;;;5080850;28;20531;-77
2022/03/14 11:23:35;;;;;;;38.90;13.27;;;;;;;;;;5087314;28;20020;-76
2022/03/14 11:26:02;;;;;;;41.70;16.50;;;;;;;;;;5087064;28;20024;-76
2022/03/14 11:28:31;;;;;;;39.42;15.88;;;;;;;;;;5087635;28;20028;-77
2022/03/14 11:31:05;;;;;;;34.05;14.88;;;;;;;;;;5068795;28;20028;-77
2022/03/14 11:33:33;;;;;;;37.95;15.02;;;;;;;;;;5087681;28;20016;-79
2022/03/14 11:36:00;;;;;;;39.95;14.85;;;;;;;;;;5084879;28;20023;-78
2022/03/14 11:38:30;;;;;;;34.17;14.90;;;;;;;;;;5084453;28;20023;-78
2022/03/14 11:40:57;;;;;;;39.63;16.23;;;;;;;;;;5084628;28;20024;-80
2022/03/14 11:43:23;;;;;;;48.55;16.77;;;;;;;;;;5081508;28;20474;-77
2022/03/14 11:45:52;;;;;;;35.83;16.48;;;;;;;;;;5080148;28;20086;-77
2022/03/14 11:48:20;;;;;;;40.50;16.58;;;;;;;;;;5080557;28;20057;-76
2022/03/14 11:50:48;;;;;;;40.65;15.60;;;;;;;;;;5086368;28;20059;-76
2022/03/14 11:53:18;;;;;;;40.47;16.92;;;;;;;;;;5082393;28;20107;-77
2022/03/14 11:55:51;;;;;;;43.83;17.80;;;;;;;;;;5080565;28;20416;-78
2022/03/14 11:58:30;;;;;;;38.30;16.08;;;;;;;;;;5083899;28;20505;-77
2022/03/14 12:00:56;;;;;;;39.80;16.40;;;;;;;;;;5082092;28;20101;-77
2022/03/14 12:03:37;;;;;;;42.85;16.15;;;;;;;;;;5086496;28;20039;-76
2022/03/14 12:06:04;;;;;;;33.40;13.50;;;;;;;;;;5078259;28;20036;-78
2022/03/14 12:08:35;;;;;;;41.83;14.38;;;;;;;;;;5087591;28;20044;-76
2022/03/14 12:11:20;;;;;;;39.65;14.25;;;;;;;;;;5087052;28;20127;-78
2022/03/14 12:13:47;;;;;;;51.28;16.73;;;;;;;;;;5087884;28;20024;-77
2022/03/14 12:16:40;;;;;;;35.10;13.73;;;;;;;;;;5085076;28;20108;-77
2022/03/14 12:19:27;;;;;;;38.60;14.75;;;;;;;;;;5084565;28;20094;-78
2022/03/14 12:21:54;;;;;;;42.72;14.75;;;;;;;;;;5087738;28;20028;-77
2022/03/14 12:24:20;;;;;;;41.22;16.50;;;;;;;;;;5091727;28;20398;-77
2022/03/14 12:26:47;;;;;;;41.42;16.50;;;;;;;;;;5082156;28;20429;-77
2022/03/14 12:29:36;;;;;;;42.92;18.20;;;;;;;;;;5084555;28;20399;-77
2022/03/14 12:32:21;;;;;;;41.40;17.83;;;;;;;;;;5057926;28;20161;-76
2022/03/14 12:34:57;;;;;;;47.13;19.42;;;;;;;;;;5087407;28;20039;-77
2022/03/14 12:37:42;;;;;;;42.45;17.40;;;;;;;;;;5082117;28;20028;-77
2022/03/14 12:40:28;;;;;;;51.22;20.13;;;;;;;;;;5088347;28;20084;-77
2022/03/14 12:42:56;;;;;;;48.90;19.52;;;;;;;;;;5070880;28;20375;-77
2022/03/14 12:45:26;;;;;;;46.10;20.92;;;;;;;;;;5084309;28;20040;-76
2022/03/14 12:47:53;;;;;;;47.03;22.08;;;;;;;;;;5086162;28;20419;-77
2022/03/14 12:50:38;;;;;;;44.78;19.63;;;;;;;;;;5088554;28;20028;-77
2022/03/14 12:53:04;;;;;;;50.80;20.52;;;;;;;;;;5085399;28;20024;-75
2022/03/14 12:55:30;;;;;;;47.90;21.67;;;;;;;;;;5089268;28;20032;-75
2022/03/14 12:57:57;;;;;;;45.55;20.80;;;;;;;;;;5090542;28;20056;-77
2022/03/14 13:00:23;;;;;;;49.92;23.08;;;;;;;;;;5085425;28;20028;-77
2022/03/14 13:02:50;;;;;;;48.45;22.20;;;;;;;;;;5090215;28;20036;-77
2022/03/14 13:05:22;;;;;;;47.40;20.60;;;;;;;;;;5090114;28;20462;-77
2022/03/14 13:08:02;;;;;;;47.63;22.95;;;;;;;;;;5086377;28;20039;-75
2022/03/14 13:10:40;;;;;;;48.42;22.50;;;;;;;;;;5085212;28;20027;-76
2022/03/14 13:13:10;;;;;;;56.47;23.30;;;;;;;;;;5084718;28;20065;-76
2022/03/14 13:15:37;;;;;;;54.47;23.20;;;;;;;;;;5089586;28;20374;-75
2022/03/14 13:18:15;;;;;;;46.22;22.23;;;;;;;;;;5090893;28;20354;-75
2022/03/14 13:20:41;;;;;;;46.10;23.60;;;;;;;;;;5069777;28;20034;-76
2022/03/14 13:23:20;;;;;;;52.97;24.83;;;;;;;;;;5089058;28;20039;-77
2022/03/14 13:25:51;;;;;;;61.95;27.25;;;;;;;;;;5090941;28;20023;-75
2022/03/14 13:28:27;;;;;;;47.95;25.63;;;;;;;;;;5089467;28;20028;-77
2022/03/14 13:30:54;;;;;;;53.85;26.20;;;;;;;;;;5087985;28;20079;-77
2022/03/14 13:33:23;;;;;;;55.08;28.67;;;;;;;;;;5089652;28;20027;-74
2022/03/14 13:35:50;;;;;;;56.65;29.80;;;;;;;;;;5091149;28;20162;-74
2022/03/14 13:38:44;;;;;;;55.15;30.00;;;;;;;;;;5083631;28;20035;-76
2022/03/14 13:41:12;;;;;;;61.03;30.40;;;;;;;;;;5086299;28;20036;-77
2022/03/14 13:43:40;;;;;;;54.30;32.58;;;;;;;;;;5091017;28;20036;-75
2022/03/14 13:46:27;;;;;;;58.92;33.28;;;;;;;;;;5087807;28;20051;-77
2022/03/14 13:48:54;;;;;;;56.60;32.67;;;;;;;;;;5092023;28;20051;-76
2022/03/14 13:51:21;;;;;;;63.75;32.92;;;;;;;;;;5088713;28;20034;-76
2022/03/14 13:53:48;;;;;;;64.75;30.23;;;;;;;;;;5087481;28;20020;-76
2022/03/14 13:56:15;;;;;;;57.47;27.25;;;;;;;;;;5067661;28;20062;-75
2022/03/14 13:58:51;;;;;;;58.65;27.45;;;;;;;;;;5090948;28;20028;-78
2022/03/14 14:01:17;;;;;;;49.80;22.90;;;;;;;;;;5087165;28;20397;-75
2022/03/14 14:03:45;;;;;;;55.72;25.52;;;;;;;;;;5098123;28;20012;-76
2022/03/14 14:06:15;;;;;;;53.25;26.02;;;;;;;;;;5093598;28;20016;-77
2022/03/14 14:08:42;;;;;;;59.75;29.77;;;;;;;;;;5091293;28;20408;-75
2022/03/14 14:11:09;;;;;;;54.88;27.73;;;;;;;;;;5090994;28;20119;-75
2022/03/14 14:13:55;;;;;;;53.20;26.70;;;;;;;;;;5087044;28;20027;-76
2022/03/14 14:16:22;;;;;;;56.13;24.30;;;;;;;;;;5085993;28;20016;-76
2022/03/14 14:19:07;;;;;;;56.33;24.00;;;;;;;;;;5088398;28;20090;-76
2022/03/14 14:21:33;;;;;;;52.33;23.52;;;;;;;;;;5092717;28;20035;-74
2022/03/14 14:24:00;;;;;;;55.22;22.23;;;;;;;;;;5092909;28;20032;-76
2022/03/14 14:26:30;;;;;;;53.25;22.58;;;;;;;;;;5086167;28;20028;-75